sensor_id;sensor_type;location;lat;lon;timestamp;P1;durP1;ratioP1;P2;durP2;ratioP2
25649;SDS011;13505;45.196;5.696;2024-02-04T05:31:42;58.10;;;24.63;;
25649;SDS011;13505;45.196;5.696;2024-02-04T05:36:33;57.85;;;25.40;;
25649;SDS011;13505;45.196;5.696;2024-02-04T05:41:23;57.70;;;24.45;;
25649;SDS011;13505;45.196;5.696;2024-02-04T05:46:14;55.70;;;23.63;;
25649;SDS011;13505;45.196;5.696;2024-02-04T05:51:05;51.90;;;22.48;;
25649;SDS011;13505;45.196;5.696;2024-02-04T05:55:55;57.83;;;24.15;;
25649;SDS011;13505;45.196;5.696;2024-02-04T06:00:45;58.45;;;25.42;;
25649;SDS011;13505;45.196;5.696;2024-02-04T06:05:35;50.33;;;21.27;;
25649;SDS011;13505;45.196;5.696;2024-02-04T06:10:26;57.75;;;23.73;;
25649;SDS011;13505;45.196;5.696;2024-02-04T06:15:16;65.38;;;25.20;;
25649;SDS011;13505;45.196;5.696;2024-02-04T06:20:07;57.00;;;23.65;;
25649;SDS011;13505;45.196;5.696;2024-02-04T06:24:58;54.05;;;22.45;;
25649;SDS011;13505;45.196;5.696;2024-02-04T06:29:48;53.33;;;23.67;;
25649;SDS011;13505;45.196;5.696;2024-02-04T06:34:38;49.50;;;21.20;;
25649;SDS011;13505;45.196;5.696;2024-02-04T06:39:29;51.67;;;20.17;;
25649;SDS011;13505;45.196;5.696;2024-02-04T06:44:19;57.25;;;21.77;;
25649;SDS011;13505;45.196;5.696;2024-02-04T06:49:09;54.03;;;21.50;;
25649;SDS011;13505;45.196;5.696;2024-02-04T06:54:00;67.07;;;25.10;;
25649;SDS011;13505;45.196;5.696;2024-02-04T06:58:51;60.78;;;22.55;;
25649;SDS011;13505;45.196;5.696;2024-02-04T07:03:41;60.38;;;24.05;;
25649;SDS011;13505;45.196;5.696;2024-02-04T07:08:31;67.88;;;24.73;;
25649;SDS011;13505;45.196;5.696;2024-02-04T07:13:22;68.00;;;25.00;;
25649;SDS011;13505;45.196;5.696;2024-02-04T07:18:12;64.95;;;23.25;;
25649;SDS011;13505;45.196;5.696;2024-02-04T07:23:03;69.20;;;24.45;;
25649;SDS011;13505;45.196;5.696;2024-02-04T07:27:54;87.65;;;29.13;;
25649;SDS011;13505;45.196;5.696;2024-02-04T07:32:44;85.30;;;29.13;;
25649;SDS011;13505;45.196;5.696;2024-02-04T07:37:35;85.53;;;29.25;;
25649;SDS011;13505;45.196;5.696;2024-02-04T07:42:25;77.82;;;27.15;;
25649;SDS011;13505;45.196;5.696;2024-02-04T07:47:16;77.68;;;25.77;;
25649;SDS011;13505;45.196;5.696;2024-02-04T07:52:07;74.47;;;25.35;;
25649;SDS011;13505;45.196;5.696;2024-02-04T07:56:57;66.28;;;23.70;;
25649;SDS011;13505;45.196;5.696;2024-02-04T08:01:48;54.05;;;22.13;;
25649;SDS011;13505;45.196;5.696;2024-02-04T08:06:39;55.35;;;21.08;;
25649;SDS011;13505;45.196;5.696;2024-02-04T08:11:29;63.92;;;23.73;;
25649;SDS011;13505;45.196;5.696;2024-02-04T08:16:20;54.67;;;20.85;;
25649;SDS011;13505;45.196;5.696;2024-02-04T08:21:11;52.88;;;20.40;;
25649;SDS011;13505;45.196;5.696;2024-02-04T08:26:02;54.05;;;21.02;;
25649;SDS011;13505;45.196;5.696;2024-02-04T08:30:53;55.58;;;21.88;;
25649;SDS011;13505;45.196;5.696;2024-02-04T08:35:44;51.17;;;19.40;;
25649;SDS011;13505;45.196;5.696;2024-02-04T08:40:34;47.85;;;18.52;;
25649;SDS011;13505;45.196;5.696;2024-02-04T08:45:24;52.92;;;19.25;;
25649;SDS011;13505;45.196;5.696;2024-02-04T08:50:15;65.00;;;23.00;;
25649;SDS011;13505;45.196;5.696;2024-02-04T08:55:05;73.10;;;25.25;;
25649;SDS011;13505;45.196;5.696;2024-02-04T08:59:56;73.07;;;25.67;;
25649;SDS011;13505;45.196;5.696;2024-02-04T09:04:47;63.35;;;22.88;;
25649;SDS011;13505;45.196;5.696;2024-02-04T09:09:37;57.75;;;21.42;;
25649;SDS011;13505;45.196;5.696;2024-02-04T09:14:27;52.75;;;18.73;;
25649;SDS011;13505;45.196;5.696;2024-02-04T09:19:18;45.83;;;18.38;;
25649;SDS011;13505;45.196;5.696;2024-02-04T09:24:09;48.42;;;19.08;;
25649;SDS011;13505;45.196;5.696;2024-02-04T09:28:59;48.08;;;18.95;;
25649;SDS011;13505;45.196;5.696;2024-02-04T09:33:50;46.70;;;18.67;;
25649;SDS011;13505;45.196;5.696;2024-02-04T09:38:40;50.47;;;20.00;;
25649;SDS011;13505;45.196;5.696;2024-02-04T09:43:33;46.25;;;19.52;;
25649;SDS011;13505;45.196;5.696;2024-02-04T09:48:26;47.25;;;19.13;;
25649;SDS011;13505;45.196;5.696;2024-02-04T09:53:21;45.05;;;20.00;;
25649;SDS011;13505;45.196;5.696;2024-02-04T09:58:25;47.20;;;18.80;;
25649;SDS011;13505;45.196;5.696;2024-02-04T10:03:16;50.20;;;21.13;;
25649;SDS011;13505;45.196;5.696;2024-02-04T10:08:06;51.30;;;21.52;;
25649;SDS011;13505;45.196;5.696;2024-02-04T10:12:57;54.00;;;21.83;;
25649;SDS011;13505;45.196;5.696;2024-02-04T10:17:47;51.97;;;21.98;;
25649;SDS011;13505;45.196;5.696;2024-02-04T10:22:38;57.30;;;23.35;;
25649;SDS011;13505;45.196;5.696;2024-02-04T10:27:29;51.53;;;22.17;;
25649;SDS011;13505;45.196;5.696;2024-02-04T10:32:21;49.85;;;21.10;;
25649;SDS011;13505;45.196;5.696;2024-02-04T10:37:12;44.78;;;20.00;;
25649;SDS011;13505;45.196;5.696;2024-02-04T10:42:03;43.08;;;18.27;;
25649;SDS011;13505;45.196;5.696;2024-02-04T10:46:54;45.10;;;17.90;;
25649;SDS011;13505;45.196;5.696;2024-02-04T10:51:45;45.38;;;18.75;;
25649;SDS011;13505;45.196;5.696;2024-02-04T10:56:38;48.42;;;19.63;;
25649;SDS011;13505;45.196;5.696;2024-02-04T11:01:33;47.88;;;19.42;;
25649;SDS011;13505;45.196;5.696;2024-02-04T11:06:24;48.30;;;19.70;;
25649;SDS011;13505;45.196;5.696;2024-02-04T11:11:16;42.47;;;17.55;;
25649;SDS011;13505;45.196;5.696;2024-02-04T11:16:07;46.13;;;20.33;;
25649;SDS011;13505;45.196;5.696;2024-02-04T11:26:18;43.15;;;18.77;;
25649;SDS011;13505;45.196;5.696;2024-02-04T11:31:18;41.85;;;17.95;;
25649;SDS011;13505;45.196;5.696;2024-02-04T11:41:04;37.15;;;16.50;;
25649;SDS011;13505;45.196;5.696;2024-02-04T11:45:58;37.53;;;17.08;;
25649;SDS011;13505;45.196;5.696;2024-02-04T11:50:53;40.20;;;17.80;;
25649;SDS011;13505;45.196;5.696;2024-02-04T11:55:46;38.92;;;16.25;;
25649;SDS011;13505;45.196;5.696;2024-02-04T12:00:36;36.83;;;16.73;;
25649;SDS011;13505;45.196;5.696;2024-02-04T12:05:27;31.67;;;14.60;;
25649;SDS011;13505;45.196;5.696;2024-02-04T12:10:17;25.75;;;12.77;;
25649;SDS011;13505;45.196;5.696;2024-02-04T12:15:08;25.25;;;11.70;;
25649;SDS011;13505;45.196;5.696;2024-02-04T12:20:00;27.70;;;11.45;;
25649;SDS011;13505;45.196;5.696;2024-02-04T12:24:51;19.98;;;9.75;;
25649;SDS011;13505;45.196;5.696;2024-02-04T12:29:41;20.00;;;10.23;;
25649;SDS011;13505;45.196;5.696;2024-02-04T12:34:31;19.58;;;8.85;;
25649;SDS011;13505;45.196;5.696;2024-02-04T12:39:24;19.45;;;9.68;;
25649;SDS011;13505;45.196;5.696;2024-02-04T12:44:17;18.70;;;9.02;;
25649;SDS011;13505;45.196;5.696;2024-02-04T12:49:08;15.38;;;8.45;;
25649;SDS011;13505;45.196;5.696;2024-02-04T12:58:58;13.57;;;7.57;;
25649;SDS011;13505;45.196;5.696;2024-02-04T13:03:48;25.00;;;11.85;;
25649;SDS011;13505;45.196;5.696;2024-02-04T13:08:40;27.20;;;12.02;;
25649;SDS011;13505;45.196;5.696;2024-02-04T13:13:30;24.23;;;12.15;;
25649;SDS011;13505;45.196;5.696;2024-02-04T13:18:20;31.00;;;12.73;;
25649;SDS011;13505;45.196;5.696;2024-02-04T13:23:11;25.60;;;12.80;;
25649;SDS011;13505;45.196;5.696;2024-02-04T13:28:01;31.15;;;13.43;;
25649;SDS011;13505;45.196;5.696;2024-02-04T13:32:53;23.27;;;10.38;;
25649;SDS011;13505;45.196;5.696;2024-02-04T13:37:45;24.13;;;12.40;;
25649;SDS011;13505;45.196;5.696;2024-02-04T13:42:37;40.72;;;18.83;;
25649;SDS011;13505;45.196;5.696;2024-02-04T13:47:27;40.67;;;18.25;;
25649;SDS011;13505;45.196;5.696;2024-02-04T13:52:18;56.65;;;22.60;;
25649;SDS011;13505;45.196;5.696;2024-02-04T13:57:09;53.00;;;20.20;;
25649;SDS011;13505;45.196;5.696;2024-02-04T14:01:59;54.17;;;22.13;;
25649;SDS011;13505;45.196;5.696;2024-02-04T14:06:50;61.08;;;24.90;;
25649;SDS011;13505;45.196;5.696;2024-02-04T14:11:40;63.90;;;28.25;;
25649;SDS011;13505;45.196;5.696;2024-02-04T14:16:30;64.72;;;27.23;;
25649;SDS011;13505;45.196;5.696;2024-02-04T14:21:21;67.32;;;28.77;;
25649;SDS011;13505;45.196;5.696;2024-02-04T14:26:20;64.90;;;28.85;;
25649;SDS011;13505;45.196;5.696;2024-02-04T14:31:11;77.20;;;30.55;;
25649;SDS011;13505;45.196;5.696;2024-02-04T14:36:01;74.97;;;31.42;;
25649;SDS011;13505;45.196;5.696;2024-02-04T14:40:52;72.38;;;30.30;;
25649;SDS011;13505;45.196;5.696;2024-02-04T14:45:42;71.47;;;29.35;;
25649;SDS011;13505;45.196;5.696;2024-02-04T14:50:32;59.30;;;25.75;;
25649;SDS011;13505;45.196;5.696;2024-02-04T14:55:23;54.00;;;23.67;;
25649;SDS011;13505;45.196;5.696;2024-02-04T15:00:13;62.80;;;24.37;;
25649;SDS011;13505;45.196;5.696;2024-02-04T15:05:04;60.13;;;27.13;;
25649;SDS011;13505;45.196;5.696;2024-02-04T15:09:55;56.75;;;25.92;;
25649;SDS011;13505;45.196;5.696;2024-02-04T15:14:45;62.33;;;25.20;;
25649;SDS011;13505;45.196;5.696;2024-02-04T15:19:36;65.55;;;27.50;;
25649;SDS011;13505;45.196;5.696;2024-02-04T15:24:26;68.05;;;28.30;;
25649;SDS011;13505;45.196;5.696;2024-02-04T15:29:17;73.13;;;30.17;;
25649;SDS011;13505;45.196;5.696;2024-02-04T15:34:09;70.88;;;30.23;;
25649;SDS011;13505;45.196;5.696;2024-02-04T15:39:00;82.28;;;29.48;;
25649;SDS011;13505;45.196;5.696;2024-02-04T15:43:52;130.63;;;30.75;;
25649;SDS011;13505;45.196;5.696;2024-02-04T15:48:42;69.73;;;29.37;;
25649;SDS011;13505;45.196;5.696;2024-02-04T15:53:36;74.22;;;29.23;;
25649;SDS011;13505;45.196;5.696;2024-02-04T15:58:26;71.32;;;29.00;;
25649;SDS011;13505;45.196;5.696;2024-02-04T16:03:20;76.95;;;28.42;;
25649;SDS011;13505;45.196;5.696;2024-02-04T16:08:11;70.53;;;26.88;;
25649;SDS011;13505;45.196;5.696;2024-02-04T16:13:02;78.45;;;30.55;;
25649;SDS011;13505;45.196;5.696;2024-02-04T16:17:59;78.68;;;28.92;;
25649;SDS011;13505;45.196;5.696;2024-02-04T16:22:50;76.10;;;27.65;;
25649;SDS011;13505;45.196;5.696;2024-02-04T16:27:40;66.05;;;27.38;;
25649;SDS011;13505;45.196;5.696;2024-02-04T16:32:30;72.78;;;27.70;;
25649;SDS011;13505;45.196;5.696;2024-02-04T16:37:21;69.60;;;27.50;;
25649;SDS011;13505;45.196;5.696;2024-02-04T16:42:11;60.15;;;26.27;;
25649;SDS011;13505;45.196;5.696;2024-02-04T16:47:01;77.85;;;28.73;;
25649;SDS011;13505;45.196;5.696;2024-02-04T16:51:52;139.02;;;31.00;;
25649;SDS011;13505;45.196;5.696;2024-02-04T16:56:43;68.05;;;26.83;;
25649;SDS011;13505;45.196;5.696;2024-02-04T17:01:36;71.97;;;28.58;;
25649;SDS011;13505;45.196;5.696;2024-02-04T17:06:27;69.80;;;27.55;;
25649;SDS011;13505;45.196;5.696;2024-02-04T17:11:21;78.35;;;29.90;;
25649;SDS011;13505;45.196;5.696;2024-02-04T17:21:40;76.50;;;28.23;;
25649;SDS011;13505;45.196;5.696;2024-02-04T17:26:32;73.47;;;26.58;;
25649;SDS011;13505;45.196;5.696;2024-02-04T17:31:24;65.07;;;26.80;;
25649;SDS011;13505;45.196;5.696;2024-02-04T17:36:14;70.72;;;28.58;;
25649;SDS011;13505;45.196;5.696;2024-02-04T17:41:04;71.18;;;28.17;;
25649;SDS011;13505;45.196;5.696;2024-02-04T17:45:57;75.20;;;28.50;;
25649;SDS011;13505;45.196;5.696;2024-02-04T17:50:48;81.50;;;28.60;;
25649;SDS011;13505;45.196;5.696;2024-02-04T17:55:40;75.15;;;30.20;;
25649;SDS011;13505;45.196;5.696;2024-02-04T18:00:31;76.38;;;28.58;;
25649;SDS011;13505;45.196;5.696;2024-02-04T18:05:24;71.45;;;27.38;;
25649;SDS011;13505;45.196;5.696;2024-02-04T18:10:14;67.82;;;25.95;;
25649;SDS011;13505;45.196;5.696;2024-02-04T18:15:05;66.47;;;26.58;;
25649;SDS011;13505;45.196;5.696;2024-02-04T18:19:56;76.38;;;32.15;;
25649;SDS011;13505;45.196;5.696;2024-02-04T18:24:46;76.97;;;31.50;;
25649;SDS011;13505;45.196;5.696;2024-02-04T18:29:36;64.05;;;26.23;;
25649;SDS011;13505;45.196;5.696;2024-02-04T18:34:27;60.78;;;25.67;;
25649;SDS011;13505;45.196;5.696;2024-02-04T18:39:20;64.05;;;26.13;;
25649;SDS011;13505;45.196;5.696;2024-02-04T18:44:10;70.03;;;26.65;;
25649;SDS011;13505;45.196;5.696;2024-02-04T18:49:02;65.28;;;25.80;;
25649;SDS011;13505;45.196;5.696;2024-02-04T18:53:52;60.72;;;24.75;;
25649;SDS011;13505;45.196;5.696;2024-02-04T18:58:43;67.53;;;26.27;;
25649;SDS011;13505;45.196;5.696;2024-02-04T19:03:36;60.33;;;26.00;;
25649;SDS011;13505;45.196;5.696;2024-02-04T19:08:27;63.20;;;27.40;;
25649;SDS011;13505;45.196;5.696;2024-02-04T19:13:17;55.10;;;24.13;;
25649;SDS011;13505;45.196;5.696;2024-02-04T19:18:08;58.58;;;25.23;;
25649;SDS011;13505;45.196;5.696;2024-02-04T19:22:59;56.85;;;24.63;;
25649;SDS011;13505;45.196;5.696;2024-02-04T19:32:48;61.80;;;24.67;;
25649;SDS011;13505;45.196;5.696;2024-02-04T19:37:40;62.60;;;25.77;;
25649;SDS011;13505;45.196;5.696;2024-02-04T19:42:30;60.50;;;24.65;;
25649;SDS011;13505;45.196;5.696;2024-02-04T19:47:20;66.72;;;26.98;;
25649;SDS011;13505;45.196;5.696;2024-02-04T19:52:11;62.97;;;26.02;;
25649;SDS011;13505;45.196;5.696;2024-02-04T19:57:02;59.95;;;26.20;;
25649;SDS011;13505;45.196;5.696;2024-02-04T20:01:53;67.90;;;27.05;;
25649;SDS011;13505;45.196;5.696;2024-02-04T20:06:43;64.93;;;26.88;;
25649;SDS011;13505;45.196;5.696;2024-02-04T20:11:34;69.65;;;26.25;;
25649;SDS011;13505;45.196;5.696;2024-02-04T20:16:24;66.63;;;26.50;;
25649;SDS011;13505;45.196;5.696;2024-02-04T20:21:14;65.65;;;27.10;;
25649;SDS011;13505;45.196;5.696;2024-02-04T20:26:05;71.43;;;26.95;;
25649;SDS011;13505;45.196;5.696;2024-02-04T20:30:55;67.13;;;26.35;;
25649;SDS011;13505;45.196;5.696;2024-02-04T20:35:46;68.43;;;26.92;;
25649;SDS011;13505;45.196;5.696;2024-02-04T20:40:36;75.78;;;27.10;;
25649;SDS011;13505;45.196;5.696;2024-02-04T20:45:27;66.25;;;26.15;;
25649;SDS011;13505;45.196;5.696;2024-02-04T20:50:18;68.28;;;27.83;;
25649;SDS011;13505;45.196;5.696;2024-02-04T20:55:09;68.85;;;27.42;;
25649;SDS011;13505;45.196;5.696;2024-02-04T20:59:59;66.15;;;25.70;;
25649;SDS011;13505;45.196;5.696;2024-02-04T21:04:49;68.35;;;25.40;;
25649;SDS011;13505;45.196;5.696;2024-02-04T21:09:40;69.05;;;26.13;;
25649;SDS011;13505;45.196;5.696;2024-02-04T21:14:31;63.88;;;25.45;;
25649;SDS011;13505;45.196;5.696;2024-02-04T21:19:21;63.78;;;26.20;;
25649;SDS011;13505;45.196;5.696;2024-02-04T21:24:11;63.88;;;25.88;;
25649;SDS011;13505;45.196;5.696;2024-02-04T21:29:02;66.13;;;25.90;;
25649;SDS011;13505;45.196;5.696;2024-02-04T21:33:53;66.57;;;25.85;;
25649;SDS011;13505;45.196;5.696;2024-02-04T21:38:43;72.55;;;25.83;;
25649;SDS011;13505;45.196;5.696;2024-02-04T21:43:34;69.43;;;26.42;;
25649;SDS011;13505;45.196;5.696;2024-02-04T21:48:24;67.10;;;26.15;;
25649;SDS011;13505;45.196;5.696;2024-02-04T21:53:14;62.50;;;25.17;;
25649;SDS011;13505;45.196;5.696;2024-02-04T21:58:07;67.75;;;26.58;;
25649;SDS011;13505;45.196;5.696;2024-02-04T22:02:59;67.85;;;27.35;;
25649;SDS011;13505;45.196;5.696;2024-02-04T22:07:49;67.25;;;26.88;;
25649;SDS011;13505;45.196;5.696;2024-02-04T22:12:40;68.45;;;26.40;;
25649;SDS011;13505;45.196;5.696;2024-02-04T22:17:30;76.05;;;26.98;;
25649;SDS011;13505;45.196;5.696;2024-02-04T22:22:21;67.90;;;26.00;;
25649;SDS011;13505;45.196;5.696;2024-02-04T22:27:11;70.45;;;25.10;;
25649;SDS011;13505;45.196;5.696;2024-02-04T22:32:02;69.72;;;25.40;;
25649;SDS011;13505;45.196;5.696;2024-02-04T22:36:53;74.80;;;27.58;;
25649;SDS011;13505;45.196;5.696;2024-02-04T22:41:43;68.30;;;24.83;;
25649;SDS011;13505;45.196;5.696;2024-02-04T22:46:37;77.20;;;28.30;;
25649;SDS011;13505;45.196;5.696;2024-02-04T22:51:27;73.18;;;26.75;;
25649;SDS011;13505;45.196;5.696;2024-02-04T22:56:17;73.30;;;28.65;;
